createdAt,value
2022-12-01T00:04:11.116Z,84.98
2022-12-01T00:09:35.689Z,85.02
2022-12-01T00:14:42.552Z,84.97
2022-12-01T00:19:49.787Z,84.97
2022-12-01T00:24:57.247Z,84.94
2022-12-01T00:30:05.033Z,84.84
2022-12-01T00:35:12.383Z,84.72
2022-12-01T00:40:19.116Z,84.77
2022-12-01T00:45:25.931Z,84.84
2022-12-01T00:50:32.862Z,84.72
2022-12-01T00:55:40.307Z,84.91
2022-12-01T01:00:47.157Z,84.82
2022-12-01T01:05:53.977Z,84.73
2022-12-01T01:11:02.198Z,84.81
2022-12-01T01:16:14.611Z,84.97
2022-12-01T01:21:22.137Z,84.85
2022-12-01T01:26:31.130Z,84.87
2022-12-01T01:31:38.413Z,84.76
2022-12-01T01:36:46.161Z,84.75
2022-12-01T01:41:53.047Z,84.73
2022-12-01T01:46:59.996Z,84.72
2022-12-01T01:52:07.340Z,84.72
2022-12-01T01:57:16.411Z,84.79
2022-12-01T02:02:23.320Z,84.76
2022-12-01T02:07:30.354Z,84.86
2022-12-01T02:12:57.162Z,84.77
2022-12-01T02:18:14.705Z,84.90
2022-12-01T02:23:49.670Z,84.85
2022-12-01T02:29:18.417Z,84.87
2022-12-01T02:34:31.114Z,84.89
2022-12-01T02:39:45.171Z,84.93
2022-12-01T02:44:52.377Z,84.99
2022-12-01T02:50:02.882Z,84.98
2022-12-01T02:55:10.737Z,85.02
2022-12-01T03:00:19.906Z,85.09
2022-12-01T03:05:32.379Z,85.05
2022-12-01T03:10:49.303Z,84.98
2022-12-01T03:16:02.885Z,85.00
2022-12-01T03:21:15.896Z,85.02
2022-12-01T03:26:25.434Z,85.08
2022-12-01T03:31:40.780Z,85.04
2022-12-01T03:36:52.425Z,84.99
2022-12-01T03:42:03.474Z,85.01
2022-12-01T03:47:14.256Z,85.03
2022-12-01T03:52:35.139Z,85.17
2022-12-01T03:57:47.454Z,85.11
2022-12-01T04:02:59.574Z,85.07
2022-12-01T04:08:05.062Z,85.18
2022-12-01T04:13:22.238Z,85.22
2022-12-01T04:18:29.062Z,85.25
2022-12-01T04:23:53.525Z,85.23
2022-12-01T04:29:01.348Z,85.25
2022-12-01T04:34:09.400Z,85.27
2022-12-01T04:39:16.597Z,85.28
2022-12-01T04:44:23.358Z,85.37
2022-12-01T04:49:30.271Z,85.35
2022-12-01T04:54:37.212Z,85.38
2022-12-01T04:59:43.991Z,85.41
2022-12-01T05:04:51.068Z,85.36
2022-12-01T05:09:58.102Z,85.40
2022-12-01T05:15:05.728Z,85.49
2022-12-01T05:20:39.743Z,85.47
2022-12-01T05:25:46.759Z,85.54
2022-12-01T05:30:57.745Z,85.51
2022-12-01T05:36:05.704Z,85.50
2022-12-01T05:41:13.030Z,85.58
2022-12-01T05:46:20.195Z,85.51
2022-12-01T05:51:27.038Z,85.57
2022-12-01T05:56:35.333Z,85.52
2022-12-01T06:01:42.254Z,85.59
2022-12-01T06:06:49.170Z,85.52
2022-12-01T06:11:56.002Z,85.55
2022-12-01T06:17:03.079Z,85.57
2022-12-01T06:22:10.136Z,85.72
2022-12-01T06:27:17.207Z,85.65
2022-12-01T06:32:24.075Z,85.64
2022-12-01T06:37:32.929Z,85.64
2022-12-01T06:42:39.980Z,85.72
2022-12-01T06:47:50.844Z,85.67
2022-12-01T06:52:59.360Z,85.61
2022-12-01T06:58:06.850Z,85.70
2022-12-01T07:03:13.855Z,85.68
2022-12-01T07:08:22.542Z,85.81
2022-12-01T07:13:33.374Z,85.68
2022-12-01T07:18:40.749Z,85.76
2022-12-01T07:23:47.530Z,85.67
2022-12-01T07:28:55.660Z,85.76
2022-12-01T07:34:02.563Z,85.73
2022-12-01T07:39:10.534Z,85.62
2022-12-01T07:44:17.524Z,85.69
2022-12-01T07:49:24.381Z,85.65
2022-12-01T07:54:31.160Z,85.79
2022-12-01T07:59:37.926Z,85.71
2022-12-01T08:04:45.433Z,85.82
2022-12-01T08:09:52.221Z,85.68
2022-12-01T08:14:58.962Z,85.55
2022-12-01T08:20:06.693Z,85.49
2022-12-01T08:25:13.712Z,85.37
2022-12-01T08:30:21.016Z,85.36
2022-12-01T08:35:28.334Z,85.28
2022-12-01T08:40:35.592Z,85.23
2022-12-01T08:45:42.502Z,85.01
2022-12-01T08:50:49.409Z,84.84
2022-12-01T08:55:56.310Z,84.81
2022-12-01T09:01:08.850Z,84.78
2022-12-01T09:06:20.232Z,84.70
2022-12-01T09:11:27.452Z,84.63
2022-12-01T09:16:34.723Z,84.61
2022-12-01T09:21:42.773Z,84.47
2022-12-01T09:26:49.941Z,84.50
2022-12-01T09:32:00.401Z,84.42
2022-12-01T09:37:07.748Z,84.37
2022-12-01T09:42:18.637Z,84.39
2022-12-01T09:47:30.875Z,84.27
2022-12-01T09:52:45.120Z,84.20
2022-12-01T09:58:04.741Z,84.13
2022-12-01T10:03:26.124Z,83.96
2022-12-01T10:08:38.279Z,84.01
2022-12-01T10:13:45.283Z,84.17
2022-12-01T10:19:01.186Z,84.14
2022-12-01T10:24:26.224Z,84.32
2022-12-01T10:29:45.063Z,84.10
2022-12-01T10:34:54.502Z,83.96
2022-12-01T10:40:01.477Z,83.90
2022-12-01T10:45:15.299Z,83.94
2022-12-01T10:50:29.026Z,83.92
2022-12-01T10:55:43.467Z,83.90
2022-12-01T11:01:01.241Z,83.81
2022-12-01T11:06:10.071Z,83.69
2022-12-01T11:11:29.165Z,83.67
2022-12-01T11:16:43.397Z,83.59
2022-12-01T11:21:52.632Z,83.68
2022-12-01T11:27:01.237Z,83.62
2022-12-01T11:32:20.678Z,83.75
2022-12-01T11:37:33.822Z,83.92
2022-12-01T11:42:42.071Z,83.63
2022-12-01T11:48:04.533Z,83.55
2022-12-01T11:53:29.147Z,83.44
2022-12-01T11:58:36.359Z,83.53
2022-12-01T12:03:53.368Z,83.37
2022-12-01T12:09:15.831Z,83.44
2022-12-01T12:14:48.711Z,83.37
2022-12-01T12:20:09.669Z,82.94
2022-12-01T12:25:28.915Z,82.91
2022-12-01T12:30:44.205Z,83.01
2022-12-01T12:36:03.547Z,82.89
2022-12-01T12:41:22.755Z,82.72
2022-12-01T12:46:37.431Z,82.61
2022-12-01T12:51:50.634Z,82.76
2022-12-01T12:57:07.704Z,82.70
2022-12-01T13:02:19.458Z,82.73
2022-12-01T13:07:35.699Z,82.72
2022-12-01T13:12:50.594Z,82.76
2022-12-01T13:18:03.413Z,82.79
2022-12-01T13:23:16.235Z,82.78
2022-12-01T13:28:26.285Z,82.47
2022-12-01T13:33:34.759Z,82.57
2022-12-01T13:38:43.671Z,82.50
2022-12-01T13:43:58.007Z,82.44
2022-12-01T13:49:31.819Z,82.59
2022-12-01T13:54:40.687Z,82.77
2022-12-01T14:00:25.195Z,82.65
2022-12-01T14:05:57.091Z,82.64
2022-12-01T14:11:07.605Z,82.56
2022-12-01T14:16:14.813Z,82.46
2022-12-01T14:21:44.254Z,82.34
2022-12-01T14:26:54.897Z,82.50
2022-12-01T14:32:22.974Z,82.69
2022-12-01T14:37:38.120Z,82.58
2022-12-01T14:43:06.866Z,82.45
2022-12-01T14:48:19.639Z,82.60
2022-12-01T14:53:31.798Z,82.63
2022-12-01T14:58:38.865Z,82.77
2022-12-01T15:03:49.497Z,82.61
2022-12-01T15:09:32.782Z,82.64
2022-12-01T15:14:48.069Z,82.65
2022-12-01T15:19:57.230Z,82.61
2022-12-01T15:25:15.155Z,82.60
2022-12-01T15:30:24.942Z,82.56
2022-12-01T15:35:35.742Z,82.59
2022-12-01T15:41:27.819Z,82.68
2022-12-01T15:46:30.149Z,82.62
2022-12-01T15:51:39.157Z,82.68
2022-12-01T15:56:52.547Z,82.59
2022-12-01T16:02:02.050Z,82.57
2022-12-01T16:07:12.308Z,82.63
2022-12-01T16:12:27.515Z,82.70
2022-12-01T16:17:45.474Z,82.58
2022-12-01T16:22:58.908Z,82.56
2022-12-01T16:28:07.817Z,82.69
2022-12-01T16:33:19.647Z,82.62
2022-12-01T16:38:29.826Z,82.60
2022-12-01T16:43:39.520Z,82.46
2022-12-01T16:48:46.690Z,82.70
2022-12-01T16:53:54.041Z,82.70
2022-12-01T16:59:02.623Z,82.62
2022-12-01T17:04:12.781Z,82.57
2022-12-01T17:09:20.271Z,82.56
2022-12-01T17:14:28.116Z,82.64
2022-12-01T17:19:35.918Z,82.52
2022-12-01T17:24:43.154Z,82.65
2022-12-01T17:29:50.153Z,82.60
2022-12-01T17:34:57.497Z,82.51
2022-12-01T17:40:04.740Z,82.66
2022-12-01T17:45:12.998Z,82.48
2022-12-01T17:50:20.022Z,82.25
2022-12-01T17:55:27.373Z,81.92
2022-12-01T18:00:37.674Z,81.62
2022-12-01T18:05:45.123Z,81.75
2022-12-01T18:10:54.657Z,81.86
2022-12-01T18:16:06.632Z,81.91
2022-12-01T18:21:16.237Z,81.81
2022-12-01T18:26:24.576Z,81.78
2022-12-01T18:31:33.148Z,81.72
2022-12-01T18:36:41.861Z,81.81
2022-12-01T18:41:49.656Z,81.70
2022-12-01T18:46:59.055Z,81.41
2022-12-01T18:52:06.164Z,81.40
2022-12-01T18:57:14.690Z,81.44
2022-12-01T19:02:22.286Z,81.52
2022-12-01T19:07:30.230Z,81.52
2022-12-01T19:12:41.272Z,81.63
2022-12-01T19:17:48.675Z,81.46
2022-12-01T19:22:55.601Z,81.45
2022-12-01T19:28:02.701Z,81.52
2022-12-01T19:33:14.015Z,81.46
2022-12-01T19:38:27.509Z,81.22
2022-12-01T19:43:35.944Z,81.30
2022-12-01T19:48:43.271Z,81.26
2022-12-01T19:53:51.071Z,81.37
2022-12-01T19:58:58.773Z,81.41
2022-12-01T20:04:09.569Z,81.31
2022-12-01T20:09:16.555Z,81.37
2022-12-01T20:14:23.599Z,81.33
2022-12-01T20:19:30.613Z,81.42
2022-12-01T20:24:39.764Z,81.52
2022-12-01T20:29:46.897Z,81.41
2022-12-01T20:34:54.036Z,81.37
2022-12-01T20:40:01.246Z,81.48
2022-12-01T20:45:08.960Z,81.55
2022-12-01T20:50:16.084Z,81.47
2022-12-01T20:55:24.603Z,81.61
2022-12-01T21:00:31.579Z,81.63
2022-12-01T21:05:41.799Z,81.64
2022-12-01T21:10:48.889Z,81.56
2022-12-01T21:16:03.600Z,81.68
2022-12-01T21:21:22.571Z,81.51
2022-12-01T21:26:29.448Z,81.51
2022-12-01T21:31:36.457Z,81.53
2022-12-01T21:36:43.334Z,81.49
2022-12-01T21:41:52.173Z,81.50
2022-12-01T21:47:01.564Z,81.49
2022-12-01T21:52:18.852Z,81.38
2022-12-01T21:57:38.539Z,81.55
2022-12-01T22:02:52.729Z,81.45
2022-12-01T22:08:11.294Z,81.43
2022-12-01T22:13:19.113Z,81.48
2022-12-01T22:18:30.744Z,81.42
2022-12-01T22:23:38.038Z,81.59
2022-12-01T22:28:45.355Z,81.77
2022-12-01T22:34:01.555Z,81.65
2022-12-01T22:39:29.773Z,81.69
2022-12-01T22:44:36.744Z,81.80
2022-12-01T22:49:44.525Z,81.71
2022-12-01T22:54:52.726Z,81.72
2022-12-01T23:00:02.576Z,81.69
2022-12-01T23:05:22.800Z,81.67
2022-12-01T23:10:32.698Z,81.55
2022-12-01T23:15:40.959Z,81.60
2022-12-01T23:20:51.950Z,81.58
2022-12-01T23:25:59.507Z,81.59
2022-12-01T23:31:06.599Z,81.45
2022-12-01T23:36:16.795Z,81.61
2022-12-01T23:41:28.883Z,81.68
2022-12-01T23:46:36.132Z,81.49
2022-12-01T23:51:48.711Z,81.51
2022-12-01T23:56:58.428Z,81.53
